Time;durP1;ratioP1;P1;durP2;ratioP2;P2;SDS_P1;SDS_P2;PMS_P1;PMS_P2;Temp;Humidity;BMP_temperature;BMP_pressure;BME280_temperature;BME280_humidity;BME280_pressure;Samples;Min_cycle;Max_cycle;Signal;HPM_P1;HPM_P2
2023/08/29 00:00:58;;;;;;;;;;;;;;;27.42;36.67;98810.38;5053386;28;19942;-78
2023/08/29 00:03:27;;;;;;;;;;;;;;;27.37;37.41;98814.00;5071589;28;19919;-78
2023/08/29 00:05:58;;;;;;;;;;;;;;;27.31;37.07;98807.09;5071557;28;19916;-78
2023/08/29 00:08:23;;;;;;;;;;;;;;;27.27;37.08;98819.66;5071371;28;19918;-78
2023/08/29 00:10:54;;;;;;;;;;;;;;;27.19;37.37;98826.59;5071699;28;19912;-78
2023/08/29 00:13:19;;;;;;;;;;;;;;;27.10;37.23;98812.16;5071562;28;19913;-78
2023/08/29 00:15:44;;;;;;;;;;;;;;;27.05;37.89;98806.88;5053751;28;19966;-78
2023/08/29 00:18:10;;;;;;;;;;;;;;;27.05;37.81;98803.34;5071667;28;19912;-78
2023/08/29 00:20:35;;;;;;;;;;;;;;;27.05;37.86;98811.47;5071681;28;20254;-78
2023/08/29 00:23:00;;;;;;;;;;;;;;;27.02;37.88;98809.38;5053635;28;19920;-78
2023/08/29 00:25:25;;;;;;;;;;;;;;;27.02;37.78;98812.88;5053649;28;19909;-78
2023/08/29 00:27:50;;;;;;;;;;;;;;;27.06;37.75;98813.09;5053642;28;19912;-78
2023/08/29 00:30:16;;;;;;;;;;;;;;;27.04;37.73;98816.09;5053478;28;19913;-78
2023/08/29 00:32:41;;;;;;;;;;;;;;;27.03;37.65;98811.78;5053550;28;19919;-78
2023/08/29 00:35:06;;;;;;;;;;;;;;;27.04;37.73;98818.81;5072012;28;20062;-77
2023/08/29 00:37:33;;;;;;;;;;;;;;;27.01;38.01;98816.69;5075401;28;19916;-78
2023/08/29 00:39:58;;;;;;;;;;;;;;;26.99;37.76;98815.41;5075066;28;19924;-78
2023/08/29 00:42:23;;;;;;;;;;;;;;;26.96;37.68;98819.50;5075164;28;20304;-78
2023/08/29 00:44:49;;;;;;;;;;;;;;;26.88;37.96;98818.28;5075181;28;19912;-77
2023/08/29 00:47:14;;;;;;;;;;;;;;;26.88;38.07;98826.44;5075192;28;19919;-78
2023/08/29 00:49:39;;;;;;;;;;;;;;;26.81;37.61;98825.22;5075174;28;19970;-78
2023/08/29 00:52:05;;;;;;;;;;;;;;;26.76;37.76;98819.91;5074973;28;19919;-78
2023/08/29 00:54:30;;;;;;;;;;;;;;;26.48;37.96;98781.97;5074886;28;19985;-77
2023/08/29 00:56:56;;;;;;;;;;;;;;;26.73;37.51;98818.56;5074484;28;19916;-78
2023/08/29 00:59:21;;;;;;;;;;;;;;;26.65;37.61;98811.16;5074571;28;20320;-78
2023/08/29 01:01:47;;;;;;;;;;;;;;;26.57;37.95;98815.38;5074652;28;20302;-78
2023/08/29 01:04:12;;;;;;;;;;;;;;;26.48;38.01;98817.16;5056578;28;19917;-78
2023/08/29 01:06:38;;;;;;;;;;;;;;;26.39;38.05;98816.25;5074620;28;19919;-77
2023/08/29 01:09:06;;;;;;;;;;;;;;;26.32;38.71;98812.31;5074399;28;20385;-78
2023/08/29 01:12:04;;;;;;;;;;;;;;;26.29;38.27;98813.72;5074632;28;19989;-78
2023/08/29 01:14:55;;;;;;;;;;;;;;;26.18;38.72;98813.09;5051785;28;19966;-78
2023/08/29 01:17:39;;;;;;;;;;;;;;;26.13;38.36;98809.69;5072046;28;19987;-78
2023/08/29 01:20:05;;;;;;;;;;;;;;;26.10;39.07;98804.88;5074048;28;20405;-77
2023/08/29 01:22:44;;;;;;;;;;;;;;;26.08;38.85;98802.47;5074166;28;19935;-78
2023/08/29 01:25:09;;;;;;;;;;;;;;;26.04;38.70;98797.94;5056138;28;19920;-78
2023/08/29 01:27:35;;;;;;;;;;;;;;;26.00;39.38;98794.19;5056026;28;19913;-78
2023/08/29 01:30:02;;;;;;;;;;;;;;;26.00;39.42;98797.69;5074164;28;19909;-78
2023/08/29 01:32:28;;;;;;;;;;;;;;;26.00;39.71;98786.88;5074036;28;19912;-76
2023/08/29 01:34:53;;;;;;;;;;;;;;;26.00;39.05;98788.78;5055933;28;20038;-78
2023/08/29 01:37:19;;;;;;;;;;;;;;;25.96;39.52;98786.66;5074054;28;19940;-78
2023/08/29 01:39:44;;;;;;;;;;;;;;;26.00;39.57;98791.50;5074041;28;20017;-78
2023/08/29 01:42:09;;;;;;;;;;;;;;;26.01;39.31;98793.09;5073869;28;19912;-78
2023/08/29 01:44:35;;;;;;;;;;;;;;;25.97;39.64;98788.28;5074108;28;19913;-79
2023/08/29 01:47:00;;;;;;;;;;;;;;;25.97;39.94;98785.56;5055650;28;19909;-78
2023/08/29 01:49:26;;;;;;;;;;;;;;;25.94;39.55;98775.34;5073681;28;19920;-78
2023/08/29 01:51:51;;;;;;;;;;;;;;;25.91;40.45;98781.34;5073707;28;19913;-79
2023/08/29 01:54:16;;;;;;;;;;;;;;;25.89;40.08;98777.34;5073531;28;20339;-78
2023/08/29 01:56:42;;;;;;;;;;;;;;;25.89;40.17;98777.34;5073579;28;19913;-78
2023/08/29 01:59:08;;;;;;;;;;;;;;;25.88;40.24;98776.53;5055721;28;20316;-77
2023/08/29 02:01:33;;;;;;;;;;;;;;;25.82;40.29;98769.63;5055515;28;19921;-77
2023/08/29 02:03:59;;;;;;;;;;;;;;;25.76;40.86;98762.69;5073802;28;19912;-77
2023/08/29 02:06:24;;;;;;;;;;;;;;;25.74;40.50;98762.19;5073840;28;20008;-79
2023/08/29 02:08:49;;;;;;;;;;;;;;;25.73;40.05;98763.28;5073760;28;20400;-77
2023/08/29 02:11:15;;;;;;;;;;;;;;;25.75;40.18;98760.28;5073682;28;19912;-78
2023/08/29 02:13:40;;;;;;;;;;;;;;;25.70;40.54;98771.97;5074613;28;19919;-79
2023/08/29 02:16:05;;;;;;;;;;;;;;;25.67;41.34;98763.66;5077715;28;20358;-80
2023/08/29 02:18:30;;;;;;;;;;;;;;;25.64;40.91;98760.41;5078065;28;19924;-79
2023/08/29 02:20:56;;;;;;;;;;;;;;;25.63;40.02;98758.81;5074169;28;19916;-79
2023/08/29 02:23:21;;;;;;;;;;;;;;;25.65;41.00;98753.09;5073552;28;20008;-79
2023/08/29 02:25:46;;;;;;;;;;;;;;;25.64;40.38;98751.50;5073865;28;20347;-78
2023/08/29 02:28:12;;;;;;;;;;;;;;;25.57;41.52;98757.28;5073531;28;19944;-78
2023/08/29 02:30:38;;;;;;;;;;;;;;;25.56;39.79;98758.38;5055301;28;19920;-78
2023/08/29 02:33:03;;;;;;;;;;;;;;;25.55;41.01;98756.78;5055393;28;19998;-78
2023/08/29 02:35:28;;;;;;;;;;;;;;;25.48;40.93;98753.66;5073446;28;19920;-78
2023/08/29 02:37:53;;;;;;;;;;;;;;;25.40;41.74;98761.63;5073460;28;19919;-78
2023/08/29 02:40:19;;;;;;;;;;;;;;;25.38;41.07;98761.91;5073070;28;19978;-78
2023/08/29 02:42:45;;;;;;;;;;;;;;;25.40;41.74;98764.34;5072653;28;20313;-78
2023/08/29 02:45:10;;;;;;;;;;;;;;;25.39;41.89;98768.94;5054643;28;19913;-78
2023/08/29 02:47:35;;;;;;;;;;;;;;;25.38;41.00;98761.91;5054683;28;19916;-78
2023/08/29 02:50:01;;;;;;;;;;;;;;;25.32;41.65;98772.00;5072554;28;19920;-78
2023/08/29 02:52:26;;;;;;;;;;;;;;;25.22;41.66;98769.44;5054459;28;20400;-78
2023/08/29 02:54:51;;;;;;;;;;;;;;;25.08;42.74;98773.16;5054467;28;19967;-78
2023/08/29 02:57:17;;;;;;;;;;;;;;;25.02;41.98;98764.31;5072470;28;19919;-78
2023/08/29 02:59:42;;;;;;;;;;;;;;;24.95;41.91;98767.34;5071847;28;19956;-78
2023/08/29 03:02:08;;;;;;;;;;;;;;;24.88;42.52;98763.41;5072132;28;19955;-78
2023/08/29 03:04:33;;;;;;;;;;;;;;;24.80;42.57;98761.34;5072282;28;20400;-78
2023/08/29 03:06:58;;;;;;;;;;;;;;;24.83;42.44;98752.66;5072153;28;19958;-78
2023/08/29 03:09:24;;;;;;;;;;;;;;;24.89;42.58;98756.91;5072132;28;20397;-78
2023/08/29 03:11:49;;;;;;;;;;;;;;;24.91;42.23;98750.13;5054128;28;20334;-78
2023/08/29 03:14:14;;;;;;;;;;;;;;;24.93;42.84;98758.72;5071872;28;19928;-78
2023/08/29 03:16:40;;;;;;;;;;;;;;;24.97;42.56;98759.78;5071974;28;20003;-78
2023/08/29 03:19:05;;;;;;;;;;;;;;;24.97;43.19;98757.09;5071871;28;20393;-78
2023/08/29 03:21:30;;;;;;;;;;;;;;;24.94;42.97;98760.34;5071834;28;20015;-78
2023/08/29 03:23:55;;;;;;;;;;;;;;;24.90;43.66;98759.31;5071916;28;19919;-78
2023/08/29 03:26:21;;;;;;;;;;;;;;;24.87;43.76;98761.78;5071952;28;19916;-78
2023/08/29 03:28:46;;;;;;;;;;;;;;;24.85;42.81;98758.56;5053805;28;19913;-78
2023/08/29 03:31:13;;;;;;;;;;;;;;;24.82;43.51;98753.75;5071914;28;19912;-79
2023/08/29 03:33:38;;;;;;;;;;;;;;;24.81;42.65;98761.06;5071874;28;19919;-78
2023/08/29 03:36:04;;;;;;;;;;;;;;;24.72;43.56;98768.19;5071727;28;20295;-78
2023/08/29 03:38:29;;;;;;;;;;;;;;;24.54;43.14;98755.47;5071853;28;19912;-78
2023/08/29 03:40:58;;;;;;;;;;;;;;;24.45;43.61;98755.25;5071841;28;19916;-78
2023/08/29 03:43:26;;;;;;;;;;;;;;;24.41;43.21;98762.34;5071985;28;20007;-78
2023/08/29 03:45:58;;;;;;;;;;;;;;;24.30;43.98;98764.34;5071670;28;19913;-78
2023/08/29 03:48:23;;;;;;;;;;;;;;;24.20;43.47;98767.13;5071678;28;19970;-78
2023/08/29 03:50:48;;;;;;;;;;;;;;;24.13;43.96;98763.97;5071513;28;19912;-78
2023/08/29 03:53:14;;;;;;;;;;;;;;;24.08;43.31;98772.91;5071473;28;20373;-78
2023/08/29 03:55:39;;;;;;;;;;;;;;;23.97;43.35;98767.91;5071691;28;19915;-78
2023/08/29 03:58:04;;;;;;;;;;;;;;;23.87;43.76;98770.69;5071681;28;19912;-79
2023/08/29 04:00:30;;;;;;;;;;;;;;;23.80;44.06;98765.63;5071563;28;20362;-78
2023/08/29 04:02:55;;;;;;;;;;;;;;;23.71;44.50;98765.41;5053674;28;19970;-78
2023/08/29 04:05:21;;;;;;;;;;;;;;;23.68;44.18;98757.06;5071499;28;19932;-78
2023/08/29 04:07:47;;;;;;;;;;;;;;;23.61;45.67;98753.91;5071699;28;19912;-78
2023/08/29 04:10:12;;;;;;;;;;;;;;;23.62;45.17;98752.81;5072207;28;20408;-78
2023/08/29 04:12:37;;;;;;;;;;;;;;;23.59;46.02;98762.25;5076015;28;19963;-79
2023/08/29 04:15:03;;;;;;;;;;;;;;;23.58;45.81;98765.25;5075859;28;19912;-78
2023/08/29 04:17:28;;;;;;;;;;;;;;;23.65;45.04;98761.13;5076291;28;19951;-77
2023/08/29 04:19:54;;;;;;;;;;;;;;;23.78;44.52;98762.38;5075611;28;19921;-76
2023/08/29 04:22:19;;;;;;;;;;;;;;;23.87;45.10;98754.50;5057718;28;19923;-78
2023/08/29 04:24:45;;;;;;;;;;;;;;;23.88;45.55;98754.22;5075649;28;19978;-78
2023/08/29 04:27:11;;;;;;;;;;;;;;;23.95;44.96;98752.00;5075487;28;19947;-78
2023/08/29 04:29:36;;;;;;;;;;;;;;;24.03;44.19;98748.69;5075684;28;19965;-78
2023/08/29 04:32:01;;;;;;;;;;;;;;;24.09;43.54;98747.53;5075570;28;20003;-78
2023/08/29 04:34:26;;;;;;;;;;;;;;;24.18;44.26;98742.31;5075306;28;19916;-78
2023/08/29 04:36:52;;;;;;;;;;;;;;;24.24;44.48;98741.19;5075128;28;19955;-78
2023/08/29 04:39:18;;;;;;;;;;;;;;;24.30;43.98;98737.38;5075142;28;19916;-78
2023/08/29 04:41:44;;;;;;;;;;;;;;;24.32;43.89;98737.88;5075039;28;19916;-78
2023/08/29 04:44:09;;;;;;;;;;;;;;;24.37;43.29;98737.00;5075086;28;20011;-78
2023/08/29 04:46:34;;;;;;;;;;;;;;;24.33;43.02;98739.47;5075299;28;19935;-77
2023/08/29 04:48:59;;;;;;;;;;;;;;;24.31;44.23;98740.88;5075246;28;19913;-77
2023/08/29 04:51:25;;;;;;;;;;;;;;;24.34;44.49;98735.69;5074869;28;19912;-77
2023/08/29 04:53:50;;;;;;;;;;;;;;;24.37;43.56;98737.81;5074851;28;19965;-79
2023/08/29 04:56:15;;;;;;;;;;;;;;;24.42;44.11;98734.25;5075002;28;19916;-79
2023/08/29 04:58:40;;;;;;;;;;;;;;;24.42;44.59;98731.56;5074935;28;19916;-79
2023/08/29 05:01:06;;;;;;;;;;;;;;;24.47;43.53;98726.09;5056854;28;19920;-78
2023/08/29 05:03:31;;;;;;;;;;;;;;;24.48;44.82;98725.00;5074971;28;19919;-78
2023/08/29 05:05:57;;;;;;;;;;;;;;;24.44;43.99;98726.69;5074737;28;19920;-78
2023/08/29 05:08:23;;;;;;;;;;;;;;;24.40;44.65;98726.44;5074784;28;19916;-77
2023/08/29 05:10:48;;;;;;;;;;;;;;;24.42;44.60;98718.06;5074298;28;19920;-77
2023/08/29 05:13:13;;;;;;;;;;;;;;;24.45;44.99;98730.97;5074249;28;19916;-78
2023/08/29 05:15:38;;;;;;;;;;;;;;;24.49;44.63;98731.22;5074306;28;20373;-79
2023/08/29 05:18:04;;;;;;;;;;;;;;;24.57;44.10;98733.28;5074257;28;19919;-78
2023/08/29 05:20:29;;;;;;;;;;;;;;;24.66;43.55;98736.97;5074185;28;19917;-78
2023/08/29 05:22:54;;;;;;;;;;;;;;;24.71;43.23;98743.09;5073572;28;20286;-79
2023/08/29 05:25:20;;;;;;;;;;;;;;;24.77;43.34;98745.72;5076381;28;19930;-78
2023/08/29 05:27:46;;;;;;;;;;;;;;;24.85;43.19;98743.19;5092282;28;19962;-78
2023/08/29 05:30:13;;;;;;;;;;;;;;;24.89;44.35;98748.81;5084418;28;20003;-78
2023/08/29 05:32:38;;;;;;;;;;;;;;;24.95;43.40;98748.44;5074114;28;19912;-78
2023/08/29 05:35:04;;;;;;;;;;;;;;;25.03;43.56;98752.41;5074110;28;19919;-77
2023/08/29 05:37:29;;;;;;;;;;;;;;;25.09;43.45;98756.66;5073861;28;19938;-78
2023/08/29 05:39:54;;;;;;;;;;;;;;;25.15;43.40;98757.38;5073821;28;20348;-78
2023/08/29 05:42:20;;;;;;;;;;;;;;;25.22;43.52;98763.22;5073845;28;19991;-77
2023/08/29 05:44:45;;;;;;;;;;;;;;;25.25;43.93;98768.84;5073914;28;19913;-77
2023/08/29 05:47:10;;;;;;;;;;;;;;;25.31;43.14;98772.31;5074136;28;19959;-78
2023/08/29 05:49:35;;;;;;;;;;;;;;;25.34;42.85;98771.72;5088898;28;19916;-78
2023/08/29 05:52:01;;;;;;;;;;;;;;;25.34;42.91;98775.22;5107334;28;19968;-78
2023/08/29 05:54:27;;;;;;;;;;;;;;;25.37;42.79;98764.91;5086429;28;19916;-78
2023/08/29 05:56:52;;;;;;;;;;;;;;;25.41;42.52;98772.16;5073437;28;19962;-78
2023/08/29 05:59:17;;;;;;;;;;;;;;;25.46;43.18;98772.06;5091455;28;19916;-77
2023/08/29 06:01:43;;;;;;;;;;;;;;;25.52;42.89;98770.09;5093357;28;19926;-78
2023/08/29 06:04:08;;;;;;;;;;;;;;;25.55;43.00;98770.28;5093499;28;19977;-78
2023/08/29 06:06:33;;;;;;;;;;;;;;;25.59;42.43;98757.78;5093409;28;19987;-78
2023/08/29 06:08:59;;;;;;;;;;;;;;;25.64;42.83;98748.81;5093304;28;19911;-77
2023/08/29 06:11:25;;;;;;;;;;;;;;;25.72;42.84;98755.47;5081521;28;20358;-77
2023/08/29 06:13:51;;;;;;;;;;;;;;;25.78;42.50;98759.69;5055066;28;19913;-78
2023/08/29 06:16:16;;;;;;;;;;;;;;;25.84;42.50;98753.88;5087620;28;19978;-78
2023/08/29 06:18:41;;;;;;;;;;;;;;;25.87;42.40;98753.28;5072963;28;19965;-77
2023/08/29 06:21:07;;;;;;;;;;;;;;;25.90;42.08;98747.28;5073270;28;19916;-78
2023/08/29 06:23:32;;;;;;;;;;;;;;;25.97;42.72;98755.00;5073292;28;19917;-78
2023/08/29 06:25:58;;;;;;;;;;;;;;;26.06;42.26;98757.88;5081254;28;19908;-77
2023/08/29 06:28:23;;;;;;;;;;;;;;;26.14;42.09;98740.94;5083112;28;19924;-78
2023/08/29 06:30:48;;;;;;;;;;;;;;;26.19;41.85;98743.53;5091190;28;20401;-78
2023/08/29 06:33:13;;;;;;;;;;;;;;;26.25;41.33;98747.75;5082766;28;19916;-77
2023/08/29 06:35:39;;;;;;;;;;;;;;;26.36;40.75;98749.19;5084957;28;19927;-78
2023/08/29 06:38:04;;;;;;;;;;;;;;;26.42;40.75;98750.69;5072703;28;19915;-77
2023/08/29 06:40:29;;;;;;;;;;;;;;;26.56;40.47;98742.56;5087108;28;19920;-77
2023/08/29 06:42:55;;;;;;;;;;;;;;;26.64;40.07;98743.75;5092792;28;19916;-77
2023/08/29 06:45:20;;;;;;;;;;;;;;;26.72;40.92;98741.16;5091782;28;20293;-77
2023/08/29 06:47:45;;;;;;;;;;;;;;;26.83;40.68;98747.97;5090602;28;20438;-78
2023/08/29 06:50:11;;;;;;;;;;;;;;;26.94;40.51;98755.88;5083519;28;19924;-78
2023/08/29 06:52:36;;;;;;;;;;;;;;;27.03;41.16;98754.88;5071218;28;19945;-76
2023/08/29 06:55:02;;;;;;;;;;;;;;;27.14;39.71;98748.13;5086756;28;19939;-79
2023/08/29 06:57:28;;;;;;;;;;;;;;;27.23;40.17;98740.88;5086352;28;19924;-78
2023/08/29 06:59:53;;;;;;;;;;;;;;;27.35;39.48;98743.03;5076647;28;19920;-76
2023/08/29 07:02:18;;;;;;;;;;;;;;;27.45;39.21;98742.78;5088511;28;20397;-78
2023/08/29 07:04:44;;;;;;;;;;;;;;;27.53;39.73;98750.22;5086916;28;19916;-77
2023/08/29 07:07:09;;;;;;;;;;;;;;;27.66;38.84;98739.63;5091402;28;20408;-78
2023/08/29 07:09:35;;;;;;;;;;;;;;;27.76;38.62;98737.47;5090741;28;19991;-79
2023/08/29 07:12:00;;;;;;;;;;;;;;;27.86;37.75;98733.69;5083166;28;19923;-77
2023/08/29 07:14:25;;;;;;;;;;;;;;;27.89;38.08;98735.78;5088330;28;19916;-78
2023/08/29 07:16:51;;;;;;;;;;;;;;;27.98;38.10;98733.09;5088408;28;19916;-78
2023/08/29 07:19:16;;;;;;;;;;;;;;;28.07;38.51;98732.03;5068027;28;19916;-78
2023/08/29 07:21:42;;;;;;;;;;;;;;;28.15;38.20;98735.91;5086627;28;19973;-78
2023/08/29 07:24:07;;;;;;;;;;;;;;;28.21;37.79;98742.78;5090820;28;19998;-78
2023/08/29 07:26:32;;;;;;;;;;;;;;;28.31;37.60;98737.13;5075918;28;19981;-78
2023/08/29 07:28:57;;;;;;;;;;;;;;;28.39;35.84;98727.41;5071445;28;20317;-78
2023/08/29 07:31:23;;;;;;;;;;;;;;;28.47;35.73;98724.72;5077915;28;19916;-78
2023/08/29 07:33:48;;;;;;;;;;;;;;;28.58;35.63;98733.38;5090345;28;19995;-78
2023/08/29 07:36:13;;;;;;;;;;;;;;;28.71;36.00;98731.66;5088511;28;19954;-78
2023/08/29 07:38:39;;;;;;;;;;;;;;;28.80;35.97;98735.19;5085520;28;19958;-78
2023/08/29 07:41:04;;;;;;;;;;;;;;;28.85;35.53;98729.63;5091556;28;20347;-79
2023/08/29 07:43:29;;;;;;;;;;;;;;;28.93;35.11;98726.09;5091677;28;19912;-78
2023/08/29 07:45:55;;;;;;;;;;;;;;;29.00;34.92;98721.03;5086111;28;19912;-78
2023/08/29 07:48:20;;;;;;;;;;;;;;;29.09;34.95;98708.25;5088402;28;19920;-78
2023/08/29 07:50:45;;;;;;;;;;;;;;;29.20;35.19;98702.47;5078950;28;19916;-78
2023/08/29 07:53:11;;;;;;;;;;;;;;;29.29;34.86;98701.34;5070260;28;19916;-77
2023/08/29 07:55:36;;;;;;;;;;;;;;;29.38;34.69;98698.63;5065905;28;19970;-78
2023/08/29 07:58:02;;;;;;;;;;;;;;;29.47;34.72;98695.91;5090554;28;19990;-78
2023/08/29 08:00:28;;;;;;;;;;;;;;;29.57;34.92;98692.84;5091079;28;19920;-78
2023/08/29 08:02:53;;;;;;;;;;;;;;;29.67;34.71;98700.66;5089111;28;19920;-78
2023/08/29 08:05:18;;;;;;;;;;;;;;;29.75;34.49;98697.16;5091110;28;20006;-77
2023/08/29 08:07:45;;;;;;;;;;;;;;;29.87;34.41;98694.53;5077240;28;19927;-78
2023/08/29 08:10:12;;;;;;;;;;;;;;;29.96;34.86;98689.88;5074782;28;20010;-77
2023/08/29 08:12:38;;;;;;;;;;;;;;;30.10;34.93;98691.59;5090026;28;19920;-77
2023/08/29 08:15:04;;;;;;;;;;;;;;;30.21;34.33;98688.19;5085871;28;19925;-79
2023/08/29 08:17:30;;;;;;;;;;;;;;;30.31;34.43;98682.38;5086677;28;19923;-76
2023/08/29 08:19:55;;;;;;;;;;;;;;;30.37;34.20;98680.25;5086170;28;19916;-77
2023/08/29 08:22:20;;;;;;;;;;;;;;;30.51;34.45;98688.22;5071373;28;20359;-77
2023/08/29 08:24:46;;;;;;;;;;;;;;;30.66;34.30;98693.91;5086614;28;19912;-75
2023/08/29 08:27:11;;;;;;;;;;;;;;;30.78;33.84;98687.72;5071073;28;19973;-77
2023/08/29 08:29:36;;;;;;;;;;;;;;;30.89;34.30;98688.91;5070918;28;19919;-77
2023/08/29 08:32:02;;;;;;;;;;;;;;;31.00;33.80;98689.31;5077708;28;19916;-77
2023/08/29 08:34:27;;;;;;;;;;;;;;;31.16;33.74;98676.69;5068871;28;20024;-77
2023/08/29 08:36:52;;;;;;;;;;;;;;;31.25;33.75;98665.72;5070030;28;20022;-77
2023/08/29 08:39:18;;;;;;;;;;;;;;;31.37;33.82;98664.97;5090880;28;19916;-77
2023/08/29 08:41:46;;;;;;;;;;;;;;;31.52;33.22;98656.94;5077620;28;19916;-78
2023/08/29 08:44:15;;;;;;;;;;;;;;;31.63;32.61;98653.78;5083564;28;19924;-78
2023/08/29 08:46:41;;;;;;;;;;;;;;;31.75;33.07;98651.09;5089712;28;19916;-77
2023/08/29 08:49:07;;;;;;;;;;;;;;;31.84;32.54;98654.53;5087720;28;19960;-76
2023/08/29 08:51:34;;;;;;;;;;;;;;;31.97;32.69;98642.50;5078991;28;20434;-77
2023/08/29 08:53:59;;;;;;;;;;;;;;;32.15;32.58;98632.94;5088874;28;19922;-78
2023/08/29 08:56:26;;;;;;;;;;;;;;;32.31;32.13;98635.00;5081950;28;19916;-78
2023/08/29 08:58:51;;;;;;;;;;;;;;;32.47;31.89;98633.13;5091901;28;19974;-78
2023/08/29 09:01:17;;;;;;;;;;;;;;;32.60;31.85;98631.16;5073137;28;20312;-79
2023/08/29 09:03:43;;;;;;;;;;;;;;;32.75;31.91;98628.53;5081944;28;19916;-77
2023/08/29 09:06:09;;;;;;;;;;;;;;;32.88;31.62;98625.78;5077464;28;19928;-78
2023/08/29 09:08:34;;;;;;;;;;;;;;;33.04;31.29;98626.63;5082464;28;20373;-78
2023/08/29 09:11:01;;;;;;;;;;;;;;;33.18;30.59;98618.81;5065176;28;20436;-78
2023/08/29 09:13:26;;;;;;;;;;;;;;;33.31;30.52;98623.09;5085635;28;19917;-79
2023/08/29 09:15:51;;;;;;;;;;;;;;;33.54;30.75;98611.59;5082743;28;20412;-78
2023/08/29 09:18:28;;;;;;;;;;;;;;;33.74;30.35;98616.78;5064283;28;19921;-77
2023/08/29 09:20:53;;;;;;;;;;;;;;;33.94;30.26;98617.69;5066969;28;19921;-78
2023/08/29 09:23:22;;;;;;;;;;;;;;;33.97;30.01;98614.25;5082039;28;19970;-79
2023/08/29 09:25:54;;;;;;;;;;;;;;;34.09;29.59;98611.38;5064282;28;20329;-78
2023/08/29 09:28:19;;;;;;;;;;;;;;;34.10;29.16;98609.44;5079854;28;19920;-78
2023/08/29 09:30:45;;;;;;;;;;;;;;;34.23;29.15;98608.22;5080245;28;20442;-76
2023/08/29 09:33:10;;;;;;;;;;;;;;;34.31;29.29;98603.69;5074198;28;19912;-77
2023/08/29 09:35:35;;;;;;;;;;;;;;;34.53;28.89;98605.75;5079141;28;19924;-78
2023/08/29 09:38:01;;;;;;;;;;;;;;;34.76;28.85;98596.81;5073971;28;20049;-78
2023/08/29 09:40:26;;;;;;;;;;;;;;;34.91;28.92;98593.22;5055804;28;19921;-78
2023/08/29 09:42:55;;;;;;;;;;;;;;;34.92;28.07;98592.06;5094126;28;19912;-76
2023/08/29 09:45:20;;;;;;;;;;;;;;;35.03;28.15;98593.09;5094028;28;19935;-77
2023/08/29 09:47:45;;;;;;;;;;;;;;;35.15;28.13;98598.41;5088538;28;20365;-77
2023/08/29 09:50:11;;;;;;;;;;;;;;;35.34;28.18;98595.66;5093809;28;19916;-78
2023/08/29 09:52:37;;;;;;;;;;;;;;;35.47;27.83;98604.50;5078063;28;19920;-78
2023/08/29 09:55:04;;;;;;;;;;;;;;;35.58;27.21;98602.72;5071962;28;19923;-76
2023/08/29 09:57:33;;;;;;;;;;;;;;;35.78;27.11;98592.50;5055885;28;19967;-78
2023/08/29 10:00:01;;;;;;;;;;;;;;;35.98;27.51;98590.47;5089771;28;19920;-77
2023/08/29 10:02:29;;;;;;;;;;;;;;;36.08;26.46;98584.34;5070735;28;19963;-77
2023/08/29 10:04:55;;;;;;;;;;;;;;;36.03;26.51;98581.13;5087415;28;20006;-78
2023/08/29 10:07:25;;;;;;;;;;;;;;;36.20;26.24;98580.56;5077868;28;20015;-78
2023/08/29 10:09:51;;;;;;;;;;;;;;;36.37;26.32;98563.56;5086415;28;20464;-76
2023/08/29 10:12:17;;;;;;;;;;;;;;;36.54;26.07;98567.72;5080243;28;19938;-78
2023/08/29 10:14:43;;;;;;;;;;;;;;;36.66;25.70;98559.22;5075738;28;19924;-78
2023/08/29 10:17:08;;;;;;;;;;;;;;;36.76;25.76;98555.81;5072821;28;19920;-78
2023/08/29 10:19:36;;;;;;;;;;;;;;;36.87;25.43;98548.47;5092512;28;19918;-78
2023/08/29 10:22:02;;;;;;;;;;;;;;;37.06;25.85;98546.69;5093360;28;19915;-78
2023/08/29 10:24:28;;;;;;;;;;;;;;;37.08;25.01;98547.91;5080945;28;20291;-76
2023/08/29 10:26:53;;;;;;;;;;;;;;;37.09;25.51;98552.25;5091206;28;19923;-77
2023/08/29 10:29:19;;;;;;;;;;;;;;;37.16;25.17;98548.75;5067020;28;20387;-77
2023/08/29 10:31:45;;;;;;;;;;;;;;;37.29;24.80;98541.06;5077270;28;19981;-76
2023/08/29 10:34:11;;;;;;;;;;;;;;;37.39;24.86;98543.13;5086769;28;19955;-77
2023/08/29 10:36:38;;;;;;;;;;;;;;;37.48;24.76;98538.88;5076090;28;19952;-78
2023/08/29 10:39:03;;;;;;;;;;;;;;;37.64;23.56;98535.06;5070122;28;20316;-76
2023/08/29 10:41:43;;;;;;;;;;;;;;;37.91;24.38;98535.69;5091419;28;19920;-77
2023/08/29 10:44:24;;;;;;;;;;;;;;;38.01;23.79;98532.19;5074503;28;19918;-75
2023/08/29 10:46:52;;;;;;;;;;;;;;;38.09;22.58;98526.34;5087982;28;19991;-78
2023/08/29 10:49:20;;;;;;;;;;;;;;;37.99;23.69;98529.03;5082047;28;19912;-77
2023/08/29 10:52:05;;;;;;;;;;;;;;;38.03;24.03;98527.09;5076051;28;19950;-76
2023/08/29 10:54:30;;;;;;;;;;;;;;;38.01;23.51;98521.97;5090187;28;19998;-77
2023/08/29 10:56:56;;;;;;;;;;;;;;;38.02;22.73;98517.25;5091487;28;19919;-77
2023/08/29 10:59:29;;;;;;;;;;;;;;;38.26;23.54;98518.56;5092860;28;19916;-77
2023/08/29 11:02:13;;;;;;;;;;;;;;;38.33;23.20;98507.56;5092471;28;20011;-78
2023/08/29 11:04:39;;;;;;;;;;;;;;;38.44;22.39;98500.91;5091440;28;19970;-76
2023/08/29 11:07:04;;;;;;;;;;;;;;;38.39;23.21;98503.25;5092430;28;19916;-78
2023/08/29 11:09:30;;;;;;;;;;;;;;;38.39;23.66;98498.53;5082516;28;20385;-78
2023/08/29 11:12:05;;;;;;;;;;;;;;;38.27;22.80;98498.09;5077695;28;20366;-78
2023/08/29 11:14:50;;;;;;;;;;;;;;;38.15;23.33;98502.78;5086223;28;19995;-78
2023/08/29 11:17:22;;;;;;;;;;;;;;;38.15;22.35;98500.00;5090127;28;20004;-78
2023/08/29 11:19:51;;;;;;;;;;;;;;;38.29;23.09;98488.25;5071625;28;20445;-76
2023/08/29 11:22:17;;;;;;;;;;;;;;;38.44;23.31;98494.59;5071724;28;19917;-78
2023/08/29 11:24:42;;;;;;;;;;;;;;;38.20;22.34;98485.06;5087624;28;19969;-77
2023/08/29 11:27:07;;;;;;;;;;;;;;;38.31;22.50;98488.66;5086475;28;19968;-78
2023/08/29 11:29:36;;;;;;;;;;;;;;;38.52;23.03;98473.34;5086974;28;19915;-77
2023/08/29 11:32:02;;;;;;;;;;;;;;;38.81;23.18;98475.03;5091143;28;20373;-79
2023/08/29 11:34:27;;;;;;;;;;;;;;;38.74;22.95;98475.03;5076141;28;20003;-78
2023/08/29 11:36:54;;;;;;;;;;;;;;;38.72;22.77;98460.84;5053985;28;19940;-75
2023/08/29 11:39:19;;;;;;;;;;;;;;;38.97;21.93;98469.94;5078026;28;19923;-76
2023/08/29 11:41:45;;;;;;;;;;;;;;;39.25;22.50;98463.66;5091425;28;19920;-78
2023/08/29 11:44:10;;;;;;;;;;;;;;;39.29;22.07;98455.34;5061634;28;19916;-76
2023/08/29 11:46:36;;;;;;;;;;;;;;;39.32;21.86;98455.34;5054914;28;20003;-77
2023/08/29 11:49:10;;;;;;;;;;;;;;;39.26;21.64;98453.38;5081851;28;19958;-76
2023/08/29 11:51:35;;;;;;;;;;;;;;;39.36;21.92;98449.81;5086847;28;19923;-76
2023/08/29 11:54:01;;;;;;;;;;;;;;;39.31;20.99;98441.94;5098763;28;19924;-79
2023/08/29 11:56:27;;;;;;;;;;;;;;;39.02;21.90;98443.91;5076691;28;20299;-78
2023/08/29 11:58:56;;;;;;;;;;;;;;;39.07;22.32;98443.53;5089559;28;19939;-77
2023/08/29 12:01:21;;;;;;;;;;;;;;;39.11;22.32;98443.53;5073324;28;20004;-76
2023/08/29 12:03:49;;;;;;;;;;;;;;;39.16;22.02;98435.66;5069395;28;20004;-77
2023/08/29 12:06:14;;;;;;;;;;;;;;;39.17;21.06;98436.44;5064674;28;20346;-78
2023/08/29 12:08:40;;;;;;;;;;;;;;;39.17;22.24;98430.91;5086413;28;20007;-76
2023/08/29 12:11:06;;;;;;;;;;;;;;;39.07;21.25;98432.50;5088244;28;19966;-77
2023/08/29 12:13:33;;;;;;;;;;;;;;;39.28;20.96;98423.41;5065538;28;19952;-78
2023/08/29 12:15:58;;;;;;;;;;;;;;;39.32;20.88;98413.94;5076846;28;20393;-77
2023/08/29 12:18:24;;;;;;;;;;;;;;;39.32;21.82;98422.22;5090857;28;19948;-77
2023/08/29 12:20:50;;;;;;;;;;;;;;;39.13;20.97;98417.09;5081234;28;20379;-78
2023/08/29 12:23:26;;;;;;;;;;;;;;;39.29;20.90;98417.47;5083996;28;19916;-77
2023/08/29 12:25:55;;;;;;;;;;;;;;;39.24;21.55;98415.13;5076792;28;20436;-78
2023/08/29 12:28:22;;;;;;;;;;;;;;;39.14;21.30;98415.94;5066306;28;19965;-79
2023/08/29 12:30:47;;;;;;;;;;;;;;;39.24;21.58;98422.63;5083426;28;20015;-78
2023/08/29 12:33:13;;;;;;;;;;;;;;;39.29;21.10;98411.19;5087035;28;20510;-77
2023/08/29 12:35:39;;;;;;;;;;;;;;;39.36;21.34;98411.16;5082419;28;19916;-79
2023/08/29 12:38:04;;;;;;;;;;;;;;;39.52;21.35;98403.28;5077796;28;20388;-77
2023/08/29 12:40:30;;;;;;;;;;;;;;;39.37;21.35;98396.16;5089362;28;20017;-76
2023/08/29 12:42:56;;;;;;;;;;;;;;;38.98;21.17;98385.94;5091955;28;19923;-77